Aviation Digital Data Service (ADDS)

Output produced by METARs form (0811 UTC 18 February 2019)
found at http://www.aviationweather.gov/metar/data/
 
METAR text: NFTV 180600Z VRB01KT 9999 FEW017 29/25 Q1008
Conditions at: NFTV (VAVA'U ISLAND , FJ) observed 0600 UTC 18 February 2019
Temperature: 29.0°C (84°F)
Dewpoint: 25.0°C (77°F) [RH = 79%]
Pressure (altimeter): 29.76 inches Hg (1008.0 mb)
Winds: variable direction winds at 1 MPH (1 knots; 0.5 m/s)
Visibility: 6 or more miles (10+ km)
Ceiling: at least 12,000 feet AGL
Clouds: few clouds at 1700 feet AGL
Weather: no significant weather observed at this time

METAR text: NFTV 180500Z 15004KT 9999 SCT017 28/25 Q1007
Conditions at: NFTV (VAVA'U ISLAND , FJ) observed 0500 UTC 18 February 2019
Temperature: 28.0°C (82°F)
Dewpoint: 25.0°C (77°F) [RH = 84%]
Pressure (altimeter): 29.73 inches Hg (1007.0 mb)
Winds: from the SSE (150 degrees) at 5 MPH (4 knots; 2.1 m/s)
Visibility: 6 or more miles (10+ km)
Ceiling: at least 12,000 feet AGL
Clouds: scattered clouds at 1700 feet AGL
Weather: no significant weather observed at this time

METAR text: NFTV 180400Z 14005KT 9999 SCT017 28/25 Q1007
Conditions at: NFTV (VAVA'U ISLAND , FJ) observed 0400 UTC 18 February 2019
Temperature: 28.0°C (82°F)
Dewpoint: 25.0°C (77°F) [RH = 84%]
Pressure (altimeter): 29.73 inches Hg (1007.0 mb)
Winds: from the SE (140 degrees) at 6 MPH (5 knots; 2.6 m/s)
Visibility: 6 or more miles (10+ km)
Ceiling: at least 12,000 feet AGL
Clouds: scattered clouds at 1700 feet AGL
Weather: no significant weather observed at this time

METAR text: NFTV 180300Z VRB02KT 9999 SCT017 29/25 Q1007
Conditions at: NFTV (VAVA'U ISLAND , FJ) observed 0300 UTC 18 February 2019
Temperature: 29.0°C (84°F)
Dewpoint: 25.0°C (77°F) [RH = 79%]
Pressure (altimeter): 29.73 inches Hg (1007.0 mb)
Winds: variable direction winds at 2 MPH (2 knots; 1.0 m/s)
Visibility: 6 or more miles (10+ km)
Ceiling: at least 12,000 feet AGL
Clouds: scattered clouds at 1700 feet AGL
Weather: no significant weather observed at this time

METAR text: NFTV 180200Z 17004KT 9999 SCT017 29/25 Q1008
Conditions at: NFTV (VAVA'U ISLAND , FJ) observed 0200 UTC 18 February 2019
Temperature: 29.0°C (84°F)
Dewpoint: 25.0°C (77°F) [RH = 79%]
Pressure (altimeter): 29.76 inches Hg (1008.0 mb)
Winds: from the S (170 degrees) at 5 MPH (4 knots; 2.1 m/s)
Visibility: 6 or more miles (10+ km)
Ceiling: at least 12,000 feet AGL
Clouds: scattered clouds at 1700 feet AGL
Weather: no significant weather observed at this time

METAR text: NFTV 180100Z 15003KT 9999 SCT017 29/25 Q1008
Conditions at: NFTV (VAVA'U ISLAND , FJ) observed 0100 UTC 18 February 2019
Temperature: 29.0°C (84°F)
Dewpoint: 25.0°C (77°F) [RH = 79%]
Pressure (altimeter): 29.76 inches Hg (1008.0 mb)
Winds: from the SSE (150 degrees) at 3 MPH (3 knots; 1.5 m/s)
Visibility: 6 or more miles (10+ km)
Ceiling: at least 12,000 feet AGL
Clouds: scattered clouds at 1700 feet AGL
Weather: no significant weather observed at this time

METAR text: NFTV 180000Z 16004KT 9999 SCT017 29/25 Q1009
Conditions at: NFTV (VAVA'U ISLAND , FJ) observed 0000 UTC 18 February 2019
Temperature: 29.0°C (84°F)
Dewpoint: 25.0°C (77°F) [RH = 79%]
Pressure (altimeter): 29.79 inches Hg (1009.0 mb)
Winds: from the SSE (160 degrees) at 5 MPH (4 knots; 2.1 m/s)
Visibility: 6 or more miles (10+ km)
Ceiling: at least 12,000 feet AGL
Clouds: scattered clouds at 1700 feet AGL
Weather: no significant weather observed at this time

METAR text: NFTV 172300Z 14004KT 9999 SCT017 30/25 Q1009
Conditions at: NFTV (VAVA'U ISLAND , FJ) observed 2300 UTC 17 February 2019
Temperature: 30.0°C (86°F)
Dewpoint: 25.0°C (77°F) [RH = 75%]
Pressure (altimeter): 29.79 inches Hg (1009.0 mb)
Winds: from the SE (140 degrees) at 5 MPH (4 knots; 2.1 m/s)
Visibility: 6 or more miles (10+ km)
Ceiling: at least 12,000 feet AGL
Clouds: scattered clouds at 1700 feet AGL
Weather: no significant weather observed at this time

METAR text: NFTV 172200Z 16004KT 9999 SCT017 29/24 Q1010
Conditions at: NFTV (VAVA'U ISLAND , FJ) observed 2200 UTC 17 February 2019
Temperature: 29.0°C (84°F)
Dewpoint: 24.0°C (75°F) [RH = 74%]
Pressure (altimeter): 29.82 inches Hg (1010.0 mb)
Winds: from the SSE (160 degrees) at 5 MPH (4 knots; 2.1 m/s)
Visibility: 6 or more miles (10+ km)
Ceiling: at least 12,000 feet AGL
Clouds: scattered clouds at 1700 feet AGL
Weather: no significant weather observed at this time

METAR text: NFTV 172100Z VRB02KT 9999 SCT017 28/24 Q1010
Conditions at: NFTV (VAVA'U ISLAND , FJ) observed 2100 UTC 17 February 2019
Temperature: 28.0°C (82°F)
Dewpoint: 24.0°C (75°F) [RH = 79%]
Pressure (altimeter): 29.82 inches Hg (1010.0 mb)
Winds: variable direction winds at 2 MPH (2 knots; 1.0 m/s)
Visibility: 6 or more miles (10+ km)
Ceiling: at least 12,000 feet AGL
Clouds: scattered clouds at 1700 feet AGL
Weather: no significant weather observed at this time

METAR text: NFTV 172000Z VRB02KT 9999 FEW017 27/25 Q1010
Conditions at: NFTV (VAVA'U ISLAND , FJ) observed 2000 UTC 17 February 2019
Temperature: 27.0°C (81°F)
Dewpoint: 25.0°C (77°F) [RH = 89%]
Pressure (altimeter): 29.82 inches Hg (1010.0 mb)
Winds: variable direction winds at 2 MPH (2 knots; 1.0 m/s)
Visibility: 6 or more miles (10+ km)
Ceiling: at least 12,000 feet AGL
Clouds: few clouds at 1700 feet AGL
Weather: no significant weather observed at this time

METAR text: NFTV 171900Z 00000KT 9999 FEW017 26/25 Q1010
Conditions at: NFTV (VAVA'U ISLAND , FJ) observed 1900 UTC 17 February 2019
Temperature: 26.0°C (79°F)
Dewpoint: 25.0°C (77°F) [RH = 94%]
Pressure (altimeter): 29.82 inches Hg (1010.0 mb)
Winds: calm
Visibility: 6 or more miles (10+ km)
Ceiling: at least 12,000 feet AGL
Clouds: few clouds at 1700 feet AGL
Weather: no significant weather observed at this time

METAR text: NFTV 171800Z 00000KT 9999 FEW017 22/21 Q1009 RMK GRASS DEW
Conditions at: NFTV (VAVA'U ISLAND , FJ) observed 1800 UTC 17 February 2019
Temperature: 22.0°C (72°F)
Dewpoint: 21.0°C (70°F) [RH = 94%]
Pressure (altimeter): 29.79 inches Hg (1009.0 mb)
Winds: calm
Visibility: 6 or more miles (10+ km)
Ceiling: at least 12,000 feet AGL
Clouds: few clouds at 1700 feet AGL
Weather: no significant weather observed at this time

METAR text: NFTV 171700Z 00000KT 9999 FEW017 22/22 Q1009 RMK GRASS DEW
Conditions at: NFTV (VAVA'U ISLAND , FJ) observed 1700 UTC 17 February 2019
Temperature: 22.0°C (72°F)
Dewpoint: 22.0°C (72°F) [RH = 100%]
Pressure (altimeter): 29.79 inches Hg (1009.0 mb)
Winds: calm
Visibility: 6 or more miles (10+ km)
Ceiling: at least 12,000 feet AGL
Clouds: few clouds at 1700 feet AGL
Weather: no significant weather observed at this time

METAR text: NFTV 171600Z 00000KT 9999 FEW020 22/22 Q1008 RMK GRASS DEW
Conditions at: NFTV (VAVA'U ISLAND , FJ) observed 1600 UTC 17 February 2019
Temperature: 22.0°C (72°F)
Dewpoint: 22.0°C (72°F) [RH = 100%]
Pressure (altimeter): 29.76 inches Hg (1008.0 mb)
Winds: calm
Visibility: 6 or more miles (10+ km)
Ceiling: at least 12,000 feet AGL
Clouds: few clouds at 2000 feet AGL
Weather: no significant weather observed at this time

METAR text: NFTV 171500Z 00000KT 9999 FEW020 22/22 Q1008 RMK GRASS DEW
Conditions at: NFTV (VAVA'U ISLAND , FJ) observed 1500 UTC 17 February 2019
Temperature: 22.0°C (72°F)
Dewpoint: 22.0°C (72°F) [RH = 100%]
Pressure (altimeter): 29.76 inches Hg (1008.0 mb)
Winds: calm
Visibility: 6 or more miles (10+ km)
Ceiling: at least 12,000 feet AGL
Clouds: few clouds at 2000 feet AGL
Weather: no significant weather observed at this time

METAR text: NFTV 171400Z 00000KT 9999 FEW020 23/22 Q1009 RMK GRASS DEW
Conditions at: NFTV (VAVA'U ISLAND , FJ) observed 1400 UTC 17 February 2019
Temperature: 23.0°C (73°F)
Dewpoint: 22.0°C (72°F) [RH = 94%]
Pressure (altimeter): 29.79 inches Hg (1009.0 mb)
Winds: calm
Visibility: 6 or more miles (10+ km)
Ceiling: at least 12,000 feet AGL
Clouds: few clouds at 2000 feet AGL
Weather: no significant weather observed at this time

METAR text: NFTV 171300Z 00000KT 9999 FEW020 23/22 Q1009 RMK GRASS DEW
Conditions at: NFTV (VAVA'U ISLAND , FJ) observed 1300 UTC 17 February 2019
Temperature: 23.0°C (73°F)
Dewpoint: 22.0°C (72°F) [RH = 94%]
Pressure (altimeter): 29.79 inches Hg (1009.0 mb)
Winds: calm
Visibility: 6 or more miles (10+ km)
Ceiling: at least 12,000 feet AGL
Clouds: few clouds at 2000 feet AGL
Weather: no significant weather observed at this time

METAR text: NFTV 171200Z 00000KT 9999 FEW020 23/23 Q1010 RMK GRASS DEW
Conditions at: NFTV (VAVA'U ISLAND , FJ) observed 1200 UTC 17 February 2019
Temperature: 23.0°C (73°F)
Dewpoint: 23.0°C (73°F) [RH = 100%]
Pressure (altimeter): 29.82 inches Hg (1010.0 mb)
Winds: calm
Visibility: 6 or more miles (10+ km)
Ceiling: at least 12,000 feet AGL
Clouds: few clouds at 2000 feet AGL
Weather: no significant weather observed at this time

METAR text: NFTV 170600Z 00000KT 9999 FEW016 SCT035 28/25 Q1008
Conditions at: NFTV (VAVA'U ISLAND , FJ) observed 0600 UTC 17 February 2019
Temperature: 28.0°C (82°F)
Dewpoint: 25.0°C (77°F) [RH = 84%]
Pressure (altimeter): 29.76 inches Hg (1008.0 mb)
Winds: calm
Visibility: 6 or more miles (10+ km)
Ceiling: at least 12,000 feet AGL
Clouds: few clouds at 1600 feet AGL
scattered clouds at 3500 feet AGL
Weather: no significant weather observed at this time

METAR text: NFTV 170500Z 00000KT 9999 FEW016 SCT035 29/25 Q1008
Conditions at: NFTV (VAVA'U ISLAND , FJ) observed 0500 UTC 17 February 2019
Temperature: 29.0°C (84°F)
Dewpoint: 25.0°C (77°F) [RH = 79%]
Pressure (altimeter): 29.76 inches Hg (1008.0 mb)
Winds: calm
Visibility: 6 or more miles (10+ km)
Ceiling: at least 12,000 feet AGL
Clouds: few clouds at 1600 feet AGL
scattered clouds at 3500 feet AGL
Weather: no significant weather observed at this time

METAR text: NFTV 170400Z 00000KT 9999 FEW016 SCT035 29/25 Q1008
Conditions at: NFTV (VAVA'U ISLAND , FJ) observed 0400 UTC 17 February 2019
Temperature: 29.0°C (84°F)
Dewpoint: 25.0°C (77°F) [RH = 79%]
Pressure (altimeter): 29.76 inches Hg (1008.0 mb)
Winds: calm
Visibility: 6 or more miles (10+ km)
Ceiling: at least 12,000 feet AGL
Clouds: few clouds at 1600 feet AGL
scattered clouds at 3500 feet AGL
Weather: no significant weather observed at this time

METAR text: NFTV 170300Z VRB02KT 9999 FEW008 SCT016 BKN030 27/26 Q1008 RERA
Conditions at: NFTV (VAVA'U ISLAND , FJ) observed 0300 UTC 17 February 2019
Temperature: 27.0°C (81°F)
Dewpoint: 26.0°C (79°F) [RH = 94%]
Pressure (altimeter): 29.76 inches Hg (1008.0 mb)
Winds: variable direction winds at 2 MPH (2 knots; 1.0 m/s)
Visibility: 6 or more miles (10+ km)
Ceiling: 3000 feet AGL
Clouds: few clouds at 800 feet AGL
scattered clouds at 1600 feet AGL
broken clouds at 3000 feet AGL
Weather: no significant weather observed at this time

METAR text: NFTV 170200Z 00000KT 9999 RA FEW008 SCT016 BKN030 27/25 Q1008
Conditions at: NFTV (VAVA'U ISLAND , FJ) observed 0200 UTC 17 February 2019
Temperature: 27.0°C (81°F)
Dewpoint: 25.0°C (77°F) [RH = 89%]
Pressure (altimeter): 29.76 inches Hg (1008.0 mb)
Winds: calm
Visibility: 6 or more miles (10+ km)
Ceiling: 3000 feet AGL
Clouds: few clouds at 800 feet AGL
scattered clouds at 1600 feet AGL
broken clouds at 3000 feet AGL
Weather: RA  (moderate rain)

METAR text: NFTV 170100Z 34006KT 9999 FEW009 BKN017 29/25 Q1008
Conditions at: NFTV (VAVA'U ISLAND , FJ) observed 0100 UTC 17 February 2019
Temperature: 29.0°C (84°F)
Dewpoint: 25.0°C (77°F) [RH = 79%]
Pressure (altimeter): 29.76 inches Hg (1008.0 mb)
Winds: from the NNW (340 degrees) at 7 MPH (6 knots; 3.1 m/s)
Visibility: 6 or more miles (10+ km)
Ceiling: 1700 feet AGL
Clouds: few clouds at 900 feet AGL
broken clouds at 1700 feet AGL
Weather: no significant weather observed at this time

METAR text: NFTV 170000Z 33005KT 9999 FEW009 SCT017 29/26 Q1008
Conditions at: NFTV (VAVA'U ISLAND , FJ) observed 0000 UTC 17 February 2019
Temperature: 29.0°C (84°F)
Dewpoint: 26.0°C (79°F) [RH = 84%]
Pressure (altimeter): 29.76 inches Hg (1008.0 mb)
Winds: from the NNW (330 degrees) at 6 MPH (5 knots; 2.6 m/s)
Visibility: 6 or more miles (10+ km)
Ceiling: at least 12,000 feet AGL
Clouds: few clouds at 900 feet AGL
scattered clouds at 1700 feet AGL
Weather: no significant weather observed at this time

METAR text: NFTV 162300Z 00000KT 9999 SCT016 29/26 Q1009
Conditions at: NFTV (VAVA'U ISLAND , FJ) observed 2300 UTC 16 February 2019
Temperature: 29.0°C (84°F)
Dewpoint: 26.0°C (79°F) [RH = 84%]
Pressure (altimeter): 29.79 inches Hg (1009.0 mb)
Winds: calm
Visibility: 6 or more miles (10+ km)
Ceiling: at least 12,000 feet AGL
Clouds: scattered clouds at 1600 feet AGL
Weather: no significant weather observed at this time

METAR text: NFTV 162200Z VRB02KT 9999 FEW009 SCT017 29/26 Q1009
Conditions at: NFTV (VAVA'U ISLAND , FJ) observed 2200 UTC 16 February 2019
Temperature: 29.0°C (84°F)
Dewpoint: 26.0°C (79°F) [RH = 84%]
Pressure (altimeter): 29.79 inches Hg (1009.0 mb)
Winds: variable direction winds at 2 MPH (2 knots; 1.0 m/s)
Visibility: 6 or more miles (10+ km)
Ceiling: at least 12,000 feet AGL
Clouds: few clouds at 900 feet AGL
scattered clouds at 1700 feet AGL
Weather: no significant weather observed at this time

METAR text: NFTV 162100Z VRB02KT 9999 FEW017 29/26 Q1009
Conditions at: NFTV (VAVA'U ISLAND , FJ) observed 2100 UTC 16 February 2019
Temperature: 29.0°C (84°F)
Dewpoint: 26.0°C (79°F) [RH = 84%]
Pressure (altimeter): 29.79 inches Hg (1009.0 mb)
Winds: variable direction winds at 2 MPH (2 knots; 1.0 m/s)
Visibility: 6 or more miles (10+ km)
Ceiling: at least 12,000 feet AGL
Clouds: few clouds at 1700 feet AGL
Weather: no significant weather observed at this time

Forecast for: NFTV (VAVA'U ISLAND , FJ)
Text: TAF NFTV 180520Z 1806/1906 13007KT 9999 SCT017
Forecast period: 0600 UTC 18 February 2019 to 0600 UTC 19 February 2019
Forecast type: FROM: standard forecast or significant change
Winds: from the SE (130 degrees) at 8 MPH (7 knots; 3.6 m/s)
Visibility: 6 or more miles 10+ km)
Ceiling: at least 12,000 feet AGL
Clouds: scattered clouds at 1700 feet AGL
Weather: no significant weather forecast for this period
Text: PROB30
Forecast period: 0000 to 0600 UTC 19 February 2019
Forecast type: TEMPORARY: The following changes expected for less than half the time period
Visibility: 3 miles (5 km)
Ceiling: 1500 feet AGL
Clouds: broken clouds at 1500 feet AGL
Weather: TSRA  (rain associated with thunderstorm(s))